Aboyne, United Kingdom
Current Conditions -  °F | °C
As of 8:20 AM on Tuesday 21 Oct 2014 (Local Time) from EGPD Reporting Station
Light Rain Light Rain  
Wind Chill: 38°   Ceiling: Unl
Heat Index: 46°   Visibility: 6mi
Dew Point: 41°   Wind: 24mph
Humidity: 81%   Direction: 300°WNW
Pressure: 29.03"   Gusts: NA
Location:  57.08°N, 2.78°W
Report Text: EGPD 210720Z 30021KT 9999 -RA SCT028 08/05 Q0983 TEMPO RA
Loading
Personal Weather Stations






























Interactive Weather Map
Tropical Storm Tracking
New forecast layout! Learn more

10-Day Weather Forecast

Advertisements
Track Severe Weather on mobile